createdAt,value
2018-08-12T00:00:28.249Z,11.40
2018-08-12T00:02:59.166Z,11.40
2018-08-12T00:05:27.603Z,11.40
2018-08-12T00:07:56.144Z,11.40
2018-08-12T00:10:25.322Z,11.40
2018-08-12T00:12:53.675Z,11.40
2018-08-12T00:15:22.583Z,11.40
2018-08-12T00:17:51.090Z,11.30
2018-08-12T00:20:21.283Z,11.30
2018-08-12T00:22:50.349Z,11.30
2018-08-12T00:25:20.194Z,11.30
2018-08-12T00:27:48.669Z,11.30
2018-08-12T00:30:17.654Z,11.30
2018-08-12T00:32:46.135Z,11.30
2018-08-12T00:35:15.784Z,11.30
2018-08-12T00:37:44.224Z,11.30
2018-08-12T00:40:13.923Z,11.30
2018-08-12T00:42:42.391Z,11.30
2018-08-12T00:45:14.956Z,11.30
2018-08-12T00:47:43.485Z,11.30
2018-08-12T00:50:13.659Z,11.30
2018-08-12T00:52:42.532Z,11.20
2018-08-12T00:55:12.880Z,11.20
2018-08-12T00:57:42.047Z,11.20
2018-08-12T01:00:13.921Z,11.20
2018-08-12T01:02:42.453Z,11.10
2018-08-12T01:05:13.738Z,11.10
2018-08-12T01:07:42.678Z,11.10
2018-08-12T01:10:12.964Z,11.20
2018-08-12T01:12:42.035Z,11.10
2018-08-12T01:15:13.160Z,11.10
2018-08-12T01:17:41.982Z,11.10
2018-08-12T01:20:12.267Z,11.10
2018-08-12T01:22:41.186Z,11.00
2018-08-12T01:25:10.469Z,11.00
2018-08-12T01:27:39.280Z,11.00
2018-08-12T01:30:09.994Z,11.00
2018-08-12T01:32:38.522Z,11.00
2018-08-12T01:35:09.744Z,11.00
2018-08-12T01:37:38.893Z,10.90
2018-08-12T01:40:09.427Z,10.90
2018-08-12T01:42:38.511Z,10.90
2018-08-12T01:45:07.370Z,10.90
2018-08-12T01:47:35.762Z,10.80
2018-08-12T01:50:05.777Z,10.80
2018-08-12T01:52:34.310Z,10.80
2018-08-12T01:55:03.176Z,10.80
2018-08-12T01:57:31.755Z,10.80
2018-08-12T02:00:00.268Z,10.70
2018-08-12T02:02:28.886Z,10.70
2018-08-12T02:04:57.457Z,10.70
2018-08-12T02:07:26.091Z,10.70
2018-08-12T02:09:54.954Z,10.60
2018-08-12T02:12:23.545Z,10.60
2018-08-12T02:14:53.441Z,10.50
2018-08-12T02:17:21.871Z,10.50
2018-08-12T02:19:50.307Z,10.50
2018-08-12T02:22:18.709Z,10.40
2018-08-12T02:24:47.056Z,10.40
2018-08-12T02:27:15.400Z,10.30
2018-08-12T02:29:44.306Z,10.30
2018-08-12T02:32:12.934Z,10.30
2018-08-12T02:34:41.903Z,10.30
2018-08-12T02:37:10.337Z,10.30
2018-08-12T02:39:38.856Z,10.30
2018-08-12T02:42:09.537Z,10.20
2018-08-12T02:44:37.973Z,10.20
2018-08-12T02:47:06.325Z,10.20
2018-08-12T02:49:34.789Z,10.20
2018-08-12T02:52:03.610Z,10.10
2018-08-12T02:54:32.255Z,10.00
2018-08-12T02:57:00.676Z,10.00
2018-08-12T02:59:29.097Z,10.00
2018-08-12T03:01:57.538Z,10.00
2018-08-12T03:04:25.952Z,10.00
2018-08-12T03:06:54.331Z,10.00
2018-08-12T03:09:22.869Z,9.90
2018-08-12T03:11:51.292Z,9.90
2018-08-12T03:14:19.934Z,9.90
2018-08-12T03:16:48.341Z,10.00
2018-08-12T03:19:16.725Z,10.00
2018-08-12T03:21:45.132Z,10.00
2018-08-12T03:24:13.885Z,9.90
2018-08-12T03:26:42.249Z,9.90
2018-08-12T03:29:10.696Z,9.90
2018-08-12T03:31:39.323Z,9.90
2018-08-12T03:34:08.960Z,9.90
2018-08-12T03:36:38.728Z,9.90
2018-08-12T03:39:09.103Z,9.90
2018-08-12T03:41:37.614Z,9.90
2018-08-12T03:44:06.267Z,9.80
2018-08-12T03:46:34.972Z,9.80
2018-08-12T03:49:03.749Z,9.80
2018-08-12T03:51:32.416Z,9.80
2018-08-12T03:54:00.966Z,9.80
2018-08-12T03:56:29.480Z,9.80
2018-08-12T03:58:57.962Z,9.70
2018-08-12T04:01:27.791Z,9.70
2018-08-12T04:03:56.229Z,9.70
2018-08-12T04:06:24.646Z,9.70
2018-08-12T04:08:53.020Z,9.60
2018-08-12T04:11:21.444Z,9.60
2018-08-12T04:13:49.819Z,9.60
2018-08-12T04:16:18.293Z,9.50
2018-08-12T04:18:46.677Z,9.50
2018-08-12T04:21:15.224Z,9.50
2018-08-12T04:23:44.277Z,9.50
2018-08-12T04:26:12.913Z,9.50
2018-08-12T04:28:41.675Z,9.50
2018-08-12T04:31:10.836Z,9.50
2018-08-12T04:33:39.167Z,9.50
2018-08-12T04:36:07.635Z,9.60
2018-08-12T04:38:35.975Z,9.60
2018-08-12T04:41:04.385Z,9.70
2018-08-12T04:43:32.970Z,9.70
2018-08-12T04:46:01.380Z,9.70
2018-08-12T04:48:29.744Z,9.80
2018-08-12T04:50:58.127Z,9.80
2018-08-12T04:53:26.549Z,9.80
2018-08-12T04:55:54.970Z,9.90
2018-08-12T04:58:23.544Z,9.90
2018-08-12T05:00:51.985Z,10.00
2018-08-12T05:03:20.366Z,10.10
2018-08-12T05:05:48.888Z,10.20
2018-08-12T05:08:17.310Z,10.30
2018-08-12T05:10:46.151Z,10.40
2018-08-12T05:13:14.531Z,10.50
2018-08-12T05:15:42.883Z,10.70
2018-08-12T05:18:11.315Z,11.00
2018-08-12T05:20:39.722Z,11.30
2018-08-12T05:23:08.081Z,11.60
2018-08-12T05:25:36.534Z,11.90
2018-08-12T05:28:04.984Z,12.10
2018-08-12T05:30:33.407Z,12.20
2018-08-12T05:33:01.752Z,12.30
2018-08-12T05:35:30.150Z,12.40
2018-08-12T05:38:00.674Z,12.60
2018-08-12T05:40:31.807Z,12.80
2018-08-12T05:43:00.385Z,13.10
2018-08-12T05:45:29.002Z,13.40
2018-08-12T05:47:57.972Z,13.60
2018-08-12T05:50:30.410Z,13.80
2018-08-12T05:52:58.988Z,14.00
2018-08-12T05:55:28.168Z,14.30
2018-08-12T05:57:57.371Z,14.50
2018-08-12T06:00:26.212Z,14.70
2018-08-12T06:02:54.734Z,15.00
2018-08-12T06:05:22.981Z,15.20
2018-08-12T06:07:51.406Z,15.40
2018-08-12T06:10:19.788Z,15.60
2018-08-12T06:12:48.190Z,15.90
2018-08-12T06:15:17.261Z,16.30
2018-08-12T06:17:47.304Z,16.50
2018-08-12T06:20:15.969Z,16.80
2018-08-12T06:22:44.978Z,17.10
2018-08-12T06:25:13.340Z,17.40
2018-08-12T06:27:42.212Z,17.60
2018-08-12T06:30:13.343Z,17.90
2018-08-12T06:32:42.919Z,18.00
2018-08-12T06:35:12.135Z,18.30
2018-08-12T06:37:40.504Z,18.10
2018-08-12T06:40:12.141Z,17.80
2018-08-12T06:42:42.537Z,17.80
2018-08-12T06:45:13.010Z,18.00
2018-08-12T06:47:41.963Z,18.30
2018-08-12T06:50:10.890Z,18.70
2018-08-12T06:52:40.067Z,19.00
2018-08-12T06:55:10.347Z,19.30
2018-08-12T06:57:38.790Z,19.40
2018-08-12T07:00:10.257Z,19.40
2018-08-12T07:02:38.723Z,19.40
2018-08-12T07:05:08.121Z,19.60
2018-08-12T07:07:36.644Z,20.00
2018-08-12T07:10:08.640Z,20.60
2018-08-12T07:12:37.024Z,20.90
2018-08-12T07:15:07.654Z,20.90
2018-08-12T07:17:36.091Z,20.70
2018-08-12T07:20:05.978Z,21.00
2018-08-12T07:22:34.351Z,21.20
2018-08-12T07:25:02.775Z,21.20
2018-08-12T07:27:31.173Z,21.10
2018-08-12T07:29:59.641Z,21.30
2018-08-12T07:32:27.995Z,21.40
2018-08-12T07:34:56.382Z,21.50
2018-08-12T07:37:24.903Z,21.60
2018-08-12T07:39:53.317Z,21.70
2018-08-12T07:42:21.719Z,21.80
2018-08-12T07:44:50.076Z,22.00
2018-08-12T07:47:18.432Z,21.90
2018-08-12T07:49:47.908Z,22.20
2018-08-12T07:52:17.474Z,22.50
2018-08-12T07:54:46.839Z,22.90
2018-08-12T07:57:17.612Z,23.30
2018-08-12T07:59:46.483Z,23.40
2018-08-12T08:02:16.581Z,23.50
2018-08-12T08:04:47.167Z,23.60
2018-08-12T08:07:15.695Z,23.70
2018-08-12T08:09:44.258Z,24.00
2018-08-12T08:12:12.755Z,24.20
2018-08-12T08:14:41.211Z,24.20
2018-08-12T08:17:09.706Z,24.30
2018-08-12T08:19:38.625Z,24.40
2018-08-12T08:22:07.122Z,24.20
2018-08-12T08:24:35.579Z,24.50
2018-08-12T08:27:04.154Z,24.80
2018-08-12T08:29:32.592Z,24.90
2018-08-12T08:32:01.347Z,25.00
2018-08-12T08:34:29.576Z,24.90
2018-08-12T08:36:57.960Z,24.80
2018-08-12T08:39:26.312Z,24.60
2018-08-12T08:41:54.729Z,25.20
2018-08-12T08:44:23.092Z,25.60
2018-08-12T08:46:51.582Z,25.80
2018-08-12T08:49:19.946Z,26.10
2018-08-12T08:51:48.348Z,25.40
2018-08-12T08:54:16.795Z,25.30
2018-08-12T08:56:45.172Z,25.30
2018-08-12T08:59:13.577Z,25.80
2018-08-12T09:01:41.916Z,25.70
2018-08-12T09:04:10.393Z,25.70
2018-08-12T09:06:38.727Z,25.60
2018-08-12T09:09:10.191Z,25.60
2018-08-12T09:11:38.371Z,25.40
2018-08-12T09:14:06.803Z,25.30
2018-08-12T09:16:35.284Z,25.50
2018-08-12T09:19:03.674Z,25.70
2018-08-12T09:21:32.047Z,25.70
2018-08-12T09:24:00.589Z,25.80
2018-08-12T09:26:28.975Z,25.70
2018-08-12T09:28:57.467Z,25.90
2018-08-12T09:31:25.830Z,26.00
2018-08-12T09:33:54.215Z,26.20
2018-08-12T09:36:22.579Z,26.50
2018-08-12T09:38:50.888Z,26.90
2018-08-12T09:41:19.269Z,26.90
2018-08-12T09:43:47.680Z,27.10
2018-08-12T09:46:16.124Z,26.70
2018-08-12T09:48:44.555Z,26.90
2018-08-12T09:51:12.926Z,27.30
2018-08-12T09:53:41.398Z,27.40
2018-08-12T09:56:09.866Z,27.30
2018-08-12T09:58:38.236Z,27.00
2018-08-12T10:01:06.629Z,27.10
2018-08-12T10:03:35.026Z,27.60
2018-08-12T10:06:03.456Z,27.50
2018-08-12T10:08:31.810Z,27.70
2018-08-12T10:11:00.268Z,27.70
2018-08-12T10:13:28.684Z,27.60
2018-08-12T10:15:57.184Z,27.90
2018-08-12T10:18:25.592Z,27.80
2018-08-12T10:20:54.012Z,28.40
2018-08-12T10:23:22.362Z,28.30
2018-08-12T10:25:50.907Z,28.70
2018-08-12T10:28:19.327Z,29.00
2018-08-12T10:30:47.734Z,28.80
2018-08-12T10:33:16.229Z,28.30
2018-08-12T10:35:44.582Z,28.90
2018-08-12T10:38:13.033Z,28.90
2018-08-12T10:40:41.499Z,29.20
2018-08-12T10:43:10.397Z,29.40
2018-08-12T10:45:39.040Z,29.50
2018-08-12T10:48:07.512Z,29.40
2018-08-12T10:50:35.835Z,29.70
2018-08-12T10:53:04.343Z,30.20
2018-08-12T10:55:32.847Z,30.50
2018-08-12T10:58:01.279Z,29.80
2018-08-12T11:00:32.985Z,29.30
2018-08-12T11:03:01.464Z,29.60
2018-08-12T11:05:29.913Z,29.30
2018-08-12T11:07:59.321Z,29.70
2018-08-12T11:10:28.524Z,30.20
2018-08-12T11:12:56.968Z,30.00
2018-08-12T11:15:25.509Z,29.80
2018-08-12T11:17:53.968Z,30.00
2018-08-12T11:20:22.431Z,29.80
2018-08-12T11:22:50.800Z,30.00
2018-08-12T11:25:19.878Z,29.80
2018-08-12T11:27:48.227Z,29.70
2018-08-12T11:30:17.543Z,30.00
2018-08-12T11:32:46.447Z,30.10
2018-08-12T11:35:17.310Z,30.40
2018-08-12T11:37:46.208Z,30.40
2018-08-12T11:40:15.311Z,30.00
2018-08-12T11:42:43.829Z,30.20
2018-08-12T11:45:13.621Z,30.10
2018-08-12T11:47:42.498Z,30.20
2018-08-12T11:50:11.599Z,30.40
2018-08-12T11:52:40.887Z,30.40
2018-08-12T11:55:10.804Z,30.20
2018-08-12T11:57:39.497Z,30.20
2018-08-12T12:00:12.296Z,30.30
2018-08-12T12:02:40.698Z,30.30
2018-08-12T12:05:10.638Z,30.60
2018-08-12T12:07:39.822Z,31.10
2018-08-12T12:10:10.695Z,31.00
2018-08-12T12:12:39.688Z,30.50
2018-08-12T12:15:08.637Z,30.20
2018-08-12T12:17:37.087Z,30.90
2018-08-12T12:20:07.302Z,31.10
2018-08-12T12:22:35.927Z,31.00
2018-08-12T12:25:05.328Z,30.80
2018-08-12T12:27:33.716Z,30.80
2018-08-12T12:30:02.118Z,30.80
2018-08-12T12:32:30.503Z,30.90
2018-08-12T12:34:58.926Z,31.00
2018-08-12T12:37:27.336Z,31.10
2018-08-12T12:39:55.673Z,31.20
2018-08-12T12:42:24.119Z,30.90
2018-08-12T12:44:52.482Z,30.70
2018-08-12T12:47:20.940Z,30.80
2018-08-12T12:49:49.286Z,31.40
2018-08-12T12:52:17.704Z,31.80
2018-08-12T12:54:46.130Z,32.30
2018-08-12T12:57:14.463Z,32.50
2018-08-12T12:59:42.830Z,32.80
2018-08-12T13:02:11.231Z,33.20
2018-08-12T13:04:39.655Z,33.40
2018-08-12T13:07:08.058Z,32.70
2018-08-12T13:09:36.507Z,32.20
2018-08-12T13:12:04.935Z,32.40
2018-08-12T13:14:33.424Z,32.20
2018-08-12T13:17:01.819Z,31.30
2018-08-12T13:19:30.188Z,31.50
2018-08-12T13:21:58.894Z,31.60
2018-08-12T13:24:27.286Z,32.00
2018-08-12T13:26:55.696Z,32.10
2018-08-12T13:29:24.055Z,32.40
2018-08-12T13:31:52.423Z,32.80
2018-08-12T13:34:20.784Z,33.00
2018-08-12T13:36:49.201Z,33.50
2018-08-12T13:39:17.619Z,33.50
2018-08-12T13:41:46.079Z,33.40
2018-08-12T13:44:14.500Z,33.20
2018-08-12T13:46:42.965Z,32.50
2018-08-12T13:49:11.361Z,32.90
2018-08-12T13:51:39.761Z,32.70
2018-08-12T13:54:08.298Z,32.70
2018-08-12T13:56:36.763Z,33.10
2018-08-12T13:59:05.592Z,32.50
2018-08-12T14:01:33.998Z,31.90
2018-08-12T14:04:02.341Z,32.00
2018-08-12T14:06:30.772Z,31.80
2018-08-12T14:08:59.166Z,32.00
2018-08-12T14:11:27.575Z,32.10
2018-08-12T14:13:56.068Z,32.40
2018-08-12T14:16:24.486Z,32.40
2018-08-12T14:18:53.041Z,32.60
2018-08-12T14:21:21.459Z,32.80
2018-08-12T14:23:49.961Z,32.40
2018-08-12T14:26:18.451Z,32.30
2018-08-12T14:28:46.959Z,32.80
2018-08-12T14:31:15.331Z,33.60
2018-08-12T14:33:43.797Z,33.30
2018-08-12T14:36:12.219Z,32.90
2018-08-12T14:38:40.574Z,33.30
2018-08-12T14:41:08.939Z,33.00
2018-08-12T14:43:37.351Z,33.30
2018-08-12T14:46:06.129Z,33.70
2018-08-12T14:48:34.502Z,34.10
2018-08-12T14:51:02.941Z,33.90
2018-08-12T14:53:31.327Z,33.00
2018-08-12T14:55:59.783Z,33.20
2018-08-12T14:58:28.185Z,32.70
2018-08-12T15:00:56.623Z,32.70
2018-08-12T15:03:25.085Z,33.30
2018-08-12T15:05:53.496Z,33.40
2018-08-12T15:08:21.870Z,33.50
2018-08-12T15:10:50.247Z,32.80
2018-08-12T15:13:18.617Z,32.50
2018-08-12T15:15:47.028Z,32.00
2018-08-12T15:18:15.391Z,32.10
2018-08-12T15:20:43.762Z,32.40
2018-08-12T15:23:12.105Z,32.10
2018-08-12T15:25:40.485Z,32.30
2018-08-12T15:28:08.886Z,32.20
2018-08-12T15:30:37.267Z,32.00
2018-08-12T15:33:05.574Z,31.90
2018-08-12T15:35:33.967Z,31.60
2018-08-12T15:38:02.336Z,31.10
2018-08-12T15:40:30.778Z,31.20
2018-08-12T15:42:59.169Z,30.90
2018-08-12T15:45:27.551Z,30.70
2018-08-12T15:47:56.034Z,30.70
2018-08-12T15:50:24.397Z,30.30
2018-08-12T15:52:52.774Z,30.50
2018-08-12T15:55:21.160Z,30.30
2018-08-12T15:57:49.543Z,30.40
2018-08-12T16:00:20.808Z,30.60
2018-08-12T16:02:49.299Z,31.00
2018-08-12T16:05:17.731Z,31.20
2018-08-12T16:07:47.130Z,31.10
2018-08-12T16:10:18.626Z,30.70
2018-08-12T16:12:48.227Z,30.60
2018-08-12T16:15:16.708Z,30.60
2018-08-12T16:17:45.111Z,30.20
2018-08-12T16:20:13.798Z,30.20
2018-08-12T16:22:42.291Z,29.90
2018-08-12T16:25:14.071Z,29.60
2018-08-12T16:27:42.912Z,29.30
2018-08-12T16:30:12.605Z,29.20
2018-08-12T16:32:41.047Z,29.10
2018-08-12T16:35:10.899Z,29.20
2018-08-12T16:37:39.468Z,29.00
2018-08-12T16:40:09.493Z,28.90
2018-08-12T16:42:37.948Z,28.90
2018-08-12T16:45:07.159Z,28.90
2018-08-12T16:47:35.739Z,28.80
2018-08-12T16:50:05.084Z,28.70
2018-08-12T16:52:33.699Z,28.50
2018-08-12T16:55:02.159Z,28.40
2018-08-12T16:57:30.928Z,28.30
2018-08-12T16:59:59.329Z,28.30
2018-08-12T17:02:27.760Z,28.20
2018-08-12T17:04:56.057Z,28.20
2018-08-12T17:07:24.577Z,28.10
2018-08-12T17:09:52.948Z,28.00
2018-08-12T17:12:21.315Z,27.90
2018-08-12T17:14:49.699Z,27.90
2018-08-12T17:17:18.065Z,27.80
2018-08-12T17:19:46.412Z,27.80
2018-08-12T17:22:14.823Z,27.80
2018-08-12T17:24:43.176Z,27.90
2018-08-12T17:27:11.582Z,27.80
2018-08-12T17:29:39.982Z,27.80
2018-08-12T17:32:08.396Z,27.70
2018-08-12T17:34:36.744Z,27.60
2018-08-12T17:37:05.523Z,27.50
2018-08-12T17:39:33.973Z,27.30
2018-08-12T17:42:02.478Z,27.30
2018-08-12T17:44:30.886Z,27.20
2018-08-12T17:46:59.335Z,27.20
2018-08-12T17:49:27.715Z,27.20
2018-08-12T17:51:56.066Z,27.00
2018-08-12T17:54:24.406Z,27.00
2018-08-12T17:56:52.788Z,26.70
2018-08-12T17:59:21.187Z,26.60
2018-08-12T18:01:49.608Z,26.40
2018-08-12T18:04:18.032Z,26.40
2018-08-12T18:06:46.472Z,26.30
2018-08-12T18:09:14.855Z,26.20
2018-08-12T18:11:43.271Z,26.00
2018-08-12T18:14:12.377Z,25.90
2018-08-12T18:16:40.763Z,25.80
2018-08-12T18:19:09.195Z,25.70
2018-08-12T18:21:37.571Z,25.60
2018-08-12T18:24:06.260Z,25.50
2018-08-12T18:26:34.723Z,25.30
2018-08-12T18:29:03.189Z,25.20
2018-08-12T18:31:31.610Z,25.00
2018-08-12T18:34:00.051Z,24.90
2018-08-12T18:36:28.676Z,24.80
2018-08-12T18:38:57.012Z,24.60
2018-08-12T18:41:25.428Z,24.50
2018-08-12T18:43:53.916Z,24.40
2018-08-12T18:46:22.325Z,24.20
2018-08-12T18:48:50.675Z,24.00
2018-08-12T18:51:19.083Z,23.90
2018-08-12T18:53:47.576Z,23.60
2018-08-12T18:56:22.954Z,23.50
2018-08-12T18:58:51.448Z,23.30
2018-08-12T19:01:19.897Z,23.10
2018-08-12T19:03:48.285Z,23.00
2018-08-12T19:06:16.793Z,22.90
2018-08-12T19:08:45.244Z,22.80
2018-08-12T19:11:13.881Z,22.70
2018-08-12T19:13:42.287Z,22.50
2018-08-12T19:16:10.711Z,22.50
2018-08-12T19:18:40.126Z,22.40
2018-08-12T19:21:09.525Z,22.20
2018-08-12T19:23:37.938Z,22.10
2018-08-12T19:26:06.416Z,22.00
2018-08-12T19:28:34.871Z,21.90
2018-08-12T19:31:03.414Z,21.80
2018-08-12T19:33:31.890Z,21.70
2018-08-12T19:36:00.346Z,21.50
2018-08-12T19:38:28.732Z,21.40
2018-08-12T19:40:57.082Z,21.30
2018-08-12T19:43:25.472Z,21.30
2018-08-12T19:45:54.123Z,21.10
2018-08-12T19:48:22.783Z,21.00
2018-08-12T19:50:51.401Z,20.90
2018-08-12T19:53:19.798Z,20.80
2018-08-12T19:55:48.279Z,20.80
2018-08-12T19:58:16.658Z,20.70
2018-08-12T20:00:46.049Z,20.70
2018-08-12T20:03:14.383Z,20.60
2018-08-12T20:05:42.882Z,20.50
2018-08-12T20:08:11.202Z,20.50
2018-08-12T20:10:39.549Z,20.50
2018-08-12T20:13:08.116Z,20.40
2018-08-12T20:15:36.558Z,20.40
2018-08-12T20:18:05.591Z,20.30
2018-08-12T20:20:33.986Z,20.20
2018-08-12T20:23:02.408Z,20.00
2018-08-12T20:25:30.966Z,20.00
2018-08-12T20:27:59.389Z,19.90
2018-08-12T20:30:27.853Z,19.80
2018-08-12T20:32:56.316Z,19.80
2018-08-12T20:35:24.643Z,19.70
2018-08-12T20:37:53.098Z,19.70
2018-08-12T20:40:21.721Z,19.60
2018-08-12T20:42:50.167Z,19.60
2018-08-12T20:45:18.973Z,19.50
2018-08-12T20:47:47.756Z,19.50
2018-08-12T20:50:16.441Z,19.40
2018-08-12T20:52:44.834Z,19.40
2018-08-12T20:55:13.328Z,19.30
2018-08-12T20:57:41.791Z,19.30
2018-08-12T21:00:10.878Z,19.20
2018-08-12T21:02:39.528Z,19.10
2018-08-12T21:05:07.950Z,19.10
2018-08-12T21:07:36.406Z,19.00
2018-08-12T21:10:05.430Z,18.90
2018-08-12T21:12:33.785Z,18.90
2018-08-12T21:15:02.231Z,18.80
2018-08-12T21:17:30.796Z,18.70
2018-08-12T21:19:59.116Z,18.60
2018-08-12T21:22:27.509Z,18.60
2018-08-12T21:24:55.912Z,18.50
2018-08-12T21:27:24.302Z,18.40
2018-08-12T21:29:52.819Z,18.40
2018-08-12T21:32:21.300Z,18.30
2018-08-12T21:34:49.806Z,18.20
2018-08-12T21:37:18.263Z,18.10
2018-08-12T21:39:46.752Z,18.10
2018-08-12T21:42:15.422Z,18.00
2018-08-12T21:44:44.643Z,17.90
2018-08-12T21:47:12.984Z,17.80
2018-08-12T21:49:41.371Z,17.80
2018-08-12T21:52:10.125Z,17.70
2018-08-12T21:54:38.512Z,17.60
2018-08-12T21:57:07.130Z,17.50
2018-08-12T21:59:35.444Z,17.40
2018-08-12T22:02:03.834Z,17.40
2018-08-12T22:04:32.204Z,17.30
2018-08-12T22:07:00.953Z,17.20
2018-08-12T22:09:29.387Z,17.20
2018-08-12T22:11:57.822Z,17.10
2018-08-12T22:14:26.212Z,17.00
2018-08-12T22:16:54.564Z,17.00
2018-08-12T22:19:23.025Z,16.90
2018-08-12T22:21:51.400Z,16.80
2018-08-12T22:24:19.799Z,16.80
2018-08-12T22:26:48.180Z,16.80
2018-08-12T22:29:16.597Z,16.70
2018-08-12T22:31:45.051Z,16.70
2018-08-12T22:34:13.427Z,16.60
2018-08-12T22:36:41.775Z,16.60
2018-08-12T22:39:10.372Z,16.50
2018-08-12T22:41:38.838Z,16.50
2018-08-12T22:44:07.320Z,16.40
2018-08-12T22:46:35.743Z,16.40
2018-08-12T22:49:04.396Z,16.30
2018-08-12T22:51:32.823Z,16.20
2018-08-12T22:54:01.278Z,16.10
2018-08-12T22:56:29.697Z,16.10
2018-08-12T22:58:58.008Z,16.00
2018-08-12T23:01:26.554Z,15.90
2018-08-12T23:03:55.260Z,15.80
2018-08-12T23:06:23.693Z,15.80
2018-08-12T23:11:33.183Z,15.70
2018-08-12T23:14:01.607Z,15.70
2018-08-12T23:16:41.181Z,15.70
2018-08-12T23:19:09.548Z,15.60
2018-08-12T23:21:37.920Z,15.60
2018-08-12T23:24:06.579Z,15.60
2018-08-12T23:26:34.985Z,15.50
2018-08-12T23:29:03.451Z,15.50
2018-08-12T23:31:31.863Z,15.40
2018-08-12T23:34:00.302Z,15.40
2018-08-12T23:36:28.679Z,15.40
2018-08-12T23:38:57.129Z,15.30
2018-08-12T23:41:25.535Z,15.30
2018-08-12T23:43:53.980Z,15.20
2018-08-12T23:46:22.360Z,15.20
2018-08-12T23:48:50.754Z,15.10
2018-08-12T23:51:19.123Z,15.10
2018-08-12T23:53:47.516Z,15.10
2018-08-12T23:56:15.931Z,15.00
2018-08-12T23:58:44.362Z,15.00
